Meteo Giornale » Osservazioni meteo Colombia » Puerto Carreno-A Guauquea
ore: 09:00 - Osservazioni Meteo Puerto Carreno-A Guauquea
Lat. 6° 10' N Lon. 67° 30' W Alt. 55 metri s.l.m.
29 °C
Poco Nuvoloso
Temp. 24 Ore
27 °C
31 °C
Nord
5.5 Km/h
Dew point 25 °C
Umidità 79 %
Visibilità 10 Km
Il sole sorge alle ore 05:22
Il sole tramonta alle ore 17:36
| Data e Ora | Cielo e Fenomeni | T °C | DP °C | Um. % | Pres. hPa | Vis. km | Vento km/h | |
|---|---|---|---|---|---|---|---|---|
| Oggi h: 09:00 | Poco Nuvoloso | 29 | 25 | 79 | 1013 | 10 | N 5.5 | |
| Oggi h: 08:00 | Nuvoloso | 29 | 26 | 83 | 1013 | 10 | NE 7.4 | |
| Oggi h: 07:58 | Nuvoloso | 29 | 26 | 83 | 1013 | 10 | NE 7.4 | |
| Oggi h: 07:00 | Nuvoloso | 27 | 26 | 94 | 1012 | 10 | N 5.5 | |
| Oggi h: 06:00 | Coperto | 27 | 0 | 17 | 1011 | 10 | N 3.7 | |
| Oggi h: 05:00 | Coperto | 27 | 0 | 17 | 1011 | 10 | N 3.7 | |
| Oggi h: 04:00 | Sereno | 27 | 0 | 17 | 1011 | 10 | N 5.5 | |
| Oggi h: 02:00 | Sereno | 28 | 0 | 16 | 1010 | 10 | N/NE 7.4 | |
| Oggi h: 00:00 | Sereno | 28 | 0 | 16 | 1012 | 10 | N 5.5 | |
| Ieri h: 23:00 | Sereno | 28 | 0 | 16 | 1012 | 10 | N/NE 7.4 | |
| Ieri h: 22:00 | Sereno | 28 | 0 | 16 | 1012 | 10 | N 5.5 | |
| Ieri h: 21:00 | Sereno | 28 | 0 | 16 | 1012 | 10 | N 5.5 | |
| Ieri h: 20:00 | Sereno | 28 | 0 | 16 | 1011 | 10 | N 1.8 | |
| Ieri h: 19:00 | Sereno | 29 | 0 | 15 | 1010 | 10 | NE 9.3 | |
| Ieri h: 18:00 | Sereno | 29 | 0 | 15 | 1010 | 10 | N 1.8 | |
| Ieri h: 17:00 | Sereno | 31 | 0 | 13 | 1008 | 10 | N 3.7 | |
| Ieri h: 16:00 | Nuvoloso | 31 | 22 | 58 | 1008 | 10 | N 5.5 | |
| Ieri h: 15:00 | Nuvoloso | 31 | 21 | 55 | 1009 | 10 | N 9.3 | |
| Ieri h: 14:00 | Sereno | 30 | 0 | 14 | 1009 | 10 | E/NE 11.1 | |
| Ieri h: 13:00 | Sereno | 29 | 0 | 15 | 1011 | 10 | NE 14.8 | |
| Ieri h: 12:00 | Nuvoloso | 29 | 21 | 62 | 1012 | 10 | NE 14.8 | |
| Ieri h: 11:00 | Sereno | 30 | 0 | 14 | 1013 | 10 | NE 14.8 | |
| Ieri h: 10:00 | Nuvoloso | 28 | 25 | 83 | 1014 | 10 | N/NE 11.1 | |



